Time;durP1;ratioP1;P1;durP2;ratioP2;P2;SDS_P1;SDS_P2;PMS_P1;PMS_P2;Temp;Humidity;BMP_temperature;BMP_pressure;BME280_temperature;BME280_humidity;BME280_pressure;Samples;Min_cycle;Max_cycle;Signal;HPM_P1;HPM_P2
2021/10/25 00:00:20;;;;;;;26.60;14.45;;;;;;;3.15;100.00;99218.63;4958755;29;20021;-79
2021/10/25 00:02:45;;;;;;;27.38;13.68;;;;;;;3.11;100.00;99224.66;4959314;29;20035;-77
2021/10/25 00:05:11;;;;;;;26.67;13.57;;;;;;;3.04;100.00;99216.59;4958845;29;20476;-79
2021/10/25 00:07:37;;;;;;;23.85;13.77;;;;;;;3.02;100.00;99223.25;4960658;29;20104;-79
2021/10/25 00:10:04;;;;;;;29.13;13.35;;;;;;;3.00;100.00;99226.19;4962652;28;20034;-79
2021/10/25 00:12:29;;;;;;;26.13;15.35;;;;;;;3.02;100.00;99232.19;4965418;29;20059;-80
2021/10/25 00:14:55;;;;;;;29.20;15.02;;;;;;;2.91;100.00;99226.66;4969340;29;20091;-80
2021/10/25 00:17:21;;;;;;;27.83;13.68;;;;;;;2.93;100.00;99227.25;4948854;29;20027;-80
2021/10/25 00:19:47;;;;;;;23.75;13.75;;;;;;;2.93;100.00;99233.50;4955982;29;20022;-80
2021/10/25 00:22:12;;;;;;;24.55;12.68;;;;;;;2.78;100.00;99221.31;4948219;29;20063;-80
2021/10/25 00:24:38;;;;;;;25.02;12.50;;;;;;;2.87;100.00;99220.00;4949086;29;20024;-79
2021/10/25 00:27:04;;;;;;;21.02;11.80;;;;;;;2.83;100.00;99218.78;4939830;29;20039;-80
2021/10/25 00:29:29;;;;;;;21.23;11.98;;;;;;;2.92;100.00;99212.91;4940536;29;20023;-80
2021/10/25 00:31:54;;;;;;;23.73;11.85;;;;;;;2.82;100.00;99215.25;4940686;29;20498;-80
2021/10/25 00:34:20;;;;;;;18.92;12.10;;;;;;;2.76;100.00;99208.00;4944582;29;20032;-80
2021/10/25 00:36:46;;;;;;;19.70;11.18;;;;;;;2.73;100.00;99208.44;4951412;29;20047;-81
2021/10/25 00:39:11;;;;;;;23.95;12.43;;;;;;;2.67;100.00;99198.47;4962703;28;20106;-82
2021/10/25 00:41:37;;;;;;;20.55;11.95;;;;;;;2.73;100.00;99197.63;4958506;29;20027;-79
2021/10/25 00:44:03;;;;;;;22.15;12.07;;;;;;;2.66;100.00;99196.84;4950220;29;20031;-80
2021/10/25 00:46:30;;;;;;;17.20;11.98;;;;;;;2.68;100.00;99194.75;4944397;29;20496;-77
2021/10/25 00:48:55;;;;;;;20.10;11.50;;;;;;;2.77;100.00;99189.91;4944130;29;20023;-78
2021/10/25 00:51:21;;;;;;;21.35;12.20;;;;;;;2.65;100.00;99192.47;4953151;29;20028;-75
2021/10/25 00:53:46;;;;;;;20.35;11.48;;;;;;;2.61;100.00;99185.84;4958882;28;20042;-75
2021/10/25 00:56:12;;;;;;;25.38;12.15;;;;;;;2.61;100.00;99191.22;4962416;29;20028;-74
2021/10/25 00:58:38;;;;;;;21.35;12.98;;;;;;;2.60;100.00;99186.91;4968744;28;20015;-80
2021/10/25 01:01:04;;;;;;;22.23;12.35;;;;;;;2.62;100.00;99192.91;4962717;29;20095;-81
2021/10/25 01:03:30;;;;;;;22.90;12.10;;;;;;;2.61;100.00;99180.44;4972167;29;20369;-80
2021/10/25 01:05:56;;;;;;;24.05;12.52;;;;;;;2.51;100.00;99180.06;4971192;29;20535;-81
2021/10/25 01:08:23;;;;;;;26.23;13.20;;;;;;;2.55;100.00;99182.13;4953959;29;20047;-80
2021/10/25 01:10:49;;;;;;;26.35;13.35;;;;;;;2.45;100.00;99178.19;4969539;29;20087;-82
2021/10/25 01:13:15;;;;;;;23.63;13.27;;;;;;;2.47;100.00;99178.84;4969586;29;20087;-81
2021/10/25 01:15:41;;;;;;;20.40;12.93;;;;;;;2.36;100.00;99172.22;4969527;28;20031;-81
2021/10/25 01:18:06;;;;;;;23.25;13.38;;;;;;;2.32;100.00;99176.38;4949440;29;20038;-81
2021/10/25 01:20:32;;;;;;;21.80;12.57;;;;;;;2.31;100.00;99184.69;4971643;29;20035;-80
2021/10/25 01:23:00;;;;;;;25.80;13.35;;;;;;;2.28;100.00;99175.16;4968739;28;20020;-81
2021/10/25 01:25:29;;;;;;;31.25;13.23;;;;;;;2.32;100.00;99159.38;4970666;29;20054;-78
2021/10/25 01:27:56;;;;;;;24.58;12.35;;;;;;;2.30;100.00;99162.28;4953957;29;20046;-80
2021/10/25 01:30:21;;;;;;;28.83;13.48;;;;;;;2.37;100.00;99160.38;4953239;29;20015;-81
2021/10/25 01:32:50;;;;;;;22.40;12.55;;;;;;;2.21;100.00;99168.94;4960920;29;20027;-80
2021/10/25 01:35:17;;;;;;;25.05;13.35;;;;;;;2.16;100.00;99164.16;4965802;28;20019;-80
2021/10/25 01:37:43;;;;;;;24.48;13.25;;;;;;;2.24;100.00;99162.28;4969528;29;20031;-81
2021/10/25 01:40:11;;;;;;;24.73;13.65;;;;;;;2.29;100.00;99157.09;4968784;29;20459;-80
2021/10/25 01:42:37;;;;;;;23.55;12.98;;;;;;;2.29;100.00;99155.22;4968288;28;20158;-80
2021/10/25 01:45:05;;;;;;;23.35;13.90;;;;;;;2.26;100.00;99152.94;4969546;29;20031;-81
2021/10/25 01:47:30;;;;;;;23.58;13.25;;;;;;;2.22;100.00;99143.63;4968641;29;20042;-80
2021/10/25 01:49:56;;;;;;;24.88;13.30;;;;;;;2.22;100.00;99153.59;4965830;29;20035;-79
2021/10/25 01:52:21;;;;;;;22.40;12.25;;;;;;;2.25;100.00;99155.88;4964841;29;20074;-81
2021/10/25 01:54:46;;;;;;;21.05;12.07;;;;;;;2.28;100.00;99152.75;4963187;29;20082;-80
2021/10/25 01:57:12;;;;;;;17.75;11.43;;;;;;;2.22;100.00;99148.19;4963288;29;20031;-79
2021/10/25 01:59:39;;;;;;;20.63;10.40;;;;;;;2.25;100.00;99148.59;4964221;29;20032;-79
2021/10/25 02:02:04;;;;;;;18.83;10.85;;;;;;;2.20;100.00;99150.25;4964535;29;20059;-81
2021/10/25 02:04:31;;;;;;;17.50;10.55;;;;;;;2.20;100.00;99139.47;4964942;29;20031;-80
2021/10/25 02:06:57;;;;;;;18.30;11.73;;;;;;;2.20;100.00;99136.75;4946093;29;20048;-81
2021/10/25 02:09:23;;;;;;;21.83;10.80;;;;;;;2.11;100.00;99139.72;4936399;29;20046;-80
2021/10/25 02:11:50;;;;;;;18.60;10.07;;;;;;;2.11;100.00;99137.00;4956186;29;20011;-80
2021/10/25 02:14:16;;;;;;;20.13;10.65;;;;;;;2.07;100.00;99143.03;4946534;29;20027;-81
2021/10/25 02:16:42;;;;;;;15.38;9.27;;;;;;;2.01;100.00;99128.53;4945085;29;20028;-81
2021/10/25 02:19:08;;;;;;;20.15;10.35;;;;;;;1.97;100.00;99131.88;4944275;29;20027;-79
2021/10/25 02:21:36;;;;;;;19.05;11.15;;;;;;;1.82;100.00;99121.28;4945692;29;20047;-80
2021/10/25 02:24:02;;;;;;;19.95;11.63;;;;;;;1.80;100.00;99120.69;4938299;29;20027;-80
2021/10/25 02:26:27;;;;;;;22.65;11.35;;;;;;;1.72;100.00;99117.41;4962943;29;20016;-78
2021/10/25 02:28:53;;;;;;;18.10;11.52;;;;;;;1.82;100.00;99115.06;4972118;29;20094;-80
2021/10/25 02:31:18;;;;;;;15.85;10.55;;;;;;;1.89;100.00;99115.88;4970937;28;20047;-80
2021/10/25 02:33:44;;;;;;;20.48;11.43;;;;;;;1.75;100.00;99104.31;4973013;28;20027;-78
2021/10/25 02:36:09;;;;;;;22.55;12.55;;;;;;;1.78;100.00;99103.06;4972474;29;20058;-79
2021/10/25 02:38:36;;;;;;;23.38;11.73;;;;;;;1.80;100.00;99112.59;4970527;29;20058;-79
2021/10/25 02:41:06;;;;;;;20.38;12.68;;;;;;;1.80;100.00;99106.38;4966822;29;20445;-80
2021/10/25 02:43:32;;;;;;;23.05;12.85;;;;;;;1.81;100.00;99097.25;4962861;29;20095;-80
2021/10/25 02:45:59;;;;;;;17.88;11.25;;;;;;;1.82;100.00;99105.13;4957975;29;20031;-80
2021/10/25 02:48:25;;;;;;;23.90;11.55;;;;;;;1.94;100.00;99108.81;4942959;29;20020;-80
2021/10/25 02:50:52;;;;;;;21.70;11.93;;;;;;;1.80;100.00;99096.41;4949368;29;20019;-80
2021/10/25 02:53:17;;;;;;;23.85;12.50;;;;;;;1.67;100.00;99098.31;4967686;29;20023;-79
2021/10/25 02:55:43;;;;;;;19.80;12.10;;;;;;;1.60;100.00;99103.69;4973174;28;20008;-80
2021/10/25 02:58:08;;;;;;;19.52;11.32;;;;;;;1.58;100.00;99103.09;4980826;28;20067;-76
2021/10/25 03:00:34;;;;;;;20.02;13.00;;;;;;;1.49;100.00;99102.50;4970161;29;20031;-80
2021/10/25 03:03:01;;;;;;;21.33;11.95;;;;;;;1.63;100.00;99104.13;4968220;29;20038;-80
2021/10/25 03:05:26;;;;;;;25.90;12.00;;;;;;;1.66;100.00;99102.06;4969956;29;20020;-80
2021/10/25 03:07:51;;;;;;;19.08;11.48;;;;;;;1.71;100.00;99099.53;4964572;29;20040;-81
2021/10/25 03:10:17;;;;;;;19.20;11.60;;;;;;;1.68;100.00;99105.34;4949291;29;20058;-80
2021/10/25 03:12:42;;;;;;;17.33;11.60;;;;;;;1.60;100.00;99101.00;4947471;29;20148;-80
2021/10/25 03:15:08;;;;;;;16.60;10.57;;;;;;;1.60;100.00;99106.41;4951017;29;20521;-77
2021/10/25 03:17:35;;;;;;;18.75;10.60;;;;;;;1.65;100.00;99108.47;4951241;29;20063;-80
2021/10/25 03:20:02;;;;;;;19.40;10.52;;;;;;;1.71;100.00;99111.16;4950042;29;20020;-80
2021/10/25 03:22:29;;;;;;;23.40;11.80;;;;;;;1.73;100.00;99101.00;4956366;29;20027;-78
2021/10/25 03:24:54;;;;;;;20.23;10.45;;;;;;;1.73;100.00;99095.59;4945666;29;20099;-79
2021/10/25 03:27:20;;;;;;;23.17;12.35;;;;;;;1.64;100.00;99099.56;4941509;29;20084;-78
2021/10/25 03:29:46;;;;;;;19.42;11.93;;;;;;;1.51;100.00;99094.19;4940911;29;20107;-79
2021/10/25 03:32:11;;;;;;;19.20;10.80;;;;;;;1.46;100.00;99092.13;4956448;28;20089;-78
2021/10/25 03:34:37;;;;;;;18.27;11.63;;;;;;;1.38;100.00;99095.00;4962165;28;20047;-80
2021/10/25 03:37:02;;;;;;;21.33;11.65;;;;;;;1.48;100.00;99102.69;4966024;28;20033;-80
2021/10/25 03:39:32;;;;;;;22.35;12.13;;;;;;;1.35;100.00;99097.28;4967785;28;20069;-81
2021/10/25 03:41:58;;;;;;;24.50;13.05;;;;;;;1.34;100.00;99095.66;4966960;28;20031;-81
2021/10/25 03:44:27;;;;;;;23.23;12.80;;;;;;;1.44;100.00;99096.06;4964489;28;20572;-80
2021/10/25 03:47:05;;;;;;;22.80;12.70;;;;;;;1.31;100.00;99098.78;4962118;28;20031;-81
2021/10/25 03:49:37;;;;;;;22.40;11.98;;;;;;;1.36;100.00;99094.41;4962346;28;20369;-80
2021/10/25 03:52:12;;;;;;;19.75;11.75;;;;;;;1.39;100.00;99098.53;4962476;28;20499;-80
2021/10/25 03:54:47;;;;;;;21.90;12.77;;;;;;;1.48;100.00;99097.28;4948588;29;20024;-81
2021/10/25 04:27:14;;;;;;;23.50;11.85;;;;;;;1.88;100.00;99104.28;4959700;29;20043;-81
2021/10/25 04:29:31;;;;;;;23.42;12.77;;;;;;;1.82;100.00;99098.88;4966206;29;20054;-81
2021/10/25 04:31:57;;;;;;;24.70;13.35;;;;;;;1.79;100.00;99086.66;4962046;29;20083;-79
2021/10/25 04:34:24;;;;;;;30.58;13.63;;;;;;;1.82;100.00;99096.19;4951528;29;21415;-81
2021/10/25 04:36:49;;;;;;;22.33;12.02;;;;;;;1.90;100.00;99099.50;4960081;29;20007;-80
2021/10/25 04:39:15;;;;;;;23.52;13.10;;;;;;;2.00;100.00;99091.81;4947968;29;20024;-81
2021/10/25 04:41:41;;;;;;;27.88;14.30;;;;;;;1.96;100.00;99089.72;4940123;29;20035;-80
2021/10/25 04:44:07;;;;;;;29.63;13.52;;;;;;;1.98;100.00;99080.38;4943111;29;20039;-81
2021/10/25 04:46:33;;;;;;;32.03;14.85;;;;;;;1.85;100.00;99083.13;4945209;29;20032;-80
2021/10/25 04:48:59;;;;;;;28.08;14.25;;;;;;;1.79;100.00;99089.34;4944035;29;20027;-80
2021/10/25 04:51:25;;;;;;;27.50;13.15;;;;;;;1.86;100.00;99083.94;4942556;29;20532;-80
2021/10/25 04:53:50;;;;;;;30.25;13.77;;;;;;;1.65;100.00;99076.97;4942718;29;20091;-80
2021/10/25 04:56:15;;;;;;;36.70;14.90;;;;;;;1.57;100.00;99074.47;4941272;29;20091;-80
2021/10/25 04:58:41;;;;;;;30.85;14.30;;;;;;;1.57;100.00;99071.78;4924298;29;20834;-79
2021/10/25 05:01:06;;;;;;;34.05;15.57;;;;;;;1.51;100.00;99069.91;4944171;29;20028;-80
2021/10/25 05:03:35;;;;;;;36.42;16.83;;;;;;;1.44;100.00;99069.91;4943826;29;20131;-80
2021/10/25 05:06:01;;;;;;;54.42;19.45;;;;;;;1.47;100.00;99074.09;4941313;29;20031;-78
2021/10/25 05:08:28;;;;;;;43.25;18.30;;;;;;;1.53;100.00;99068.69;4929941;29;20741;-77
2021/10/25 05:10:54;;;;;;;51.78;17.63;;;;;;;1.53;100.00;99067.84;4942196;29;20023;-77
2021/10/25 05:13:19;;;;;;;45.28;16.88;;;;;;;1.63;100.00;99069.06;4946116;29;20031;-80
2021/10/25 05:15:45;;;;;;;43.83;17.33;;;;;;;1.66;100.00;99067.81;4969434;29;20035;-81
2021/10/25 05:18:10;;;;;;;31.38;15.65;;;;;;;1.68;100.00;99060.34;4959332;29;20035;-80
2021/10/25 05:20:36;;;;;;;109.30;18.40;;;;;;;1.66;100.00;99067.81;4954963;29;20038;-79
2021/10/25 05:23:01;;;;;;;118.22;19.83;;;;;;;1.64;100.00;99064.50;4940609;29;20036;-80
2021/10/25 05:25:28;;;;;;;60.28;16.33;;;;;;;1.58;100.00;99059.97;4955956;29;20098;-80
2021/10/25 05:27:54;;;;;;;57.50;18.45;;;;;;;1.63;100.00;99055.59;4941710;29;20088;-77
2021/10/25 05:30:20;;;;;;;35.85;16.10;;;;;;;1.70;100.00;99068.22;4949707;28;20058;-76
2021/10/25 05:32:46;;;;;;;59.92;18.80;;;;;;;1.81;100.00;99060.31;4931754;29;20032;-75
2021/10/25 05:35:11;;;;;;;97.43;16.88;;;;;;;1.75;100.00;99066.56;4944265;28;20019;-75
2021/10/25 05:37:36;;;;;;;160.98;18.83;;;;;;;1.58;100.00;99065.34;4943141;28;20039;-76
2021/10/25 05:40:03;;;;;;;81.78;19.33;;;;;;;1.63;100.00;99068.22;4920153;29;20031;-77
2021/10/25 05:42:28;;;;;;;49.33;18.08;;;;;;;1.70;100.00;99070.91;4943586;29;20014;-77
2021/10/25 05:44:53;;;;;;;128.48;18.58;;;;;;;1.67;100.00;99072.16;4944333;29;20476;-76
2021/10/25 05:47:19;;;;;;;61.58;19.58;;;;;;;1.67;100.00;99069.47;4933884;29;20032;-75
2021/10/25 05:49:45;;;;;;;44.38;19.08;;;;;;;1.76;100.00;99076.28;4932949;29;20058;-76
2021/10/25 05:52:10;;;;;;;52.58;18.08;;;;;;;1.71;100.00;99061.78;4933061;29;20035;-76
2021/10/25 05:54:36;;;;;;;50.70;19.90;;;;;;;1.77;100.00;99061.78;4935137;29;20400;-75
2021/10/25 05:57:01;;;;;;;47.58;18.85;;;;;;;1.87;100.00;99075.66;4934729;29;20099;-75
2021/10/25 05:59:27;;;;;;;34.17;17.05;;;;;;;1.95;100.00;99071.88;4916436;29;20138;-76
2021/10/25 06:01:58;;;;;;;56.90;17.17;;;;;;;1.93;100.00;99074.81;4932746;29;20035;-76
2021/10/25 06:04:26;;;;;;;66.00;18.33;;;;;;;1.85;100.00;99072.31;4933411;29;20035;-76
2021/10/25 06:06:52;;;;;;;61.63;15.50;;;;;;;1.89;100.00;99078.97;4931132;29;20142;-75
2021/10/25 06:09:18;;;;;;;88.38;15.43;;;;;;;1.89;100.00;99073.56;4918079;29;20024;-76
2021/10/25 06:11:44;;;;;;;78.50;16.25;;;;;;;1.79;100.00;99075.88;4936989;29;20051;-76
2021/10/25 06:14:11;;;;;;;39.53;14.50;;;;;;;1.84;100.00;99078.78;4937065;29;20028;-75
2021/10/25 06:16:41;;;;;;;76.88;15.90;;;;;;;1.87;100.00;99075.66;4936531;29;20035;-74
2021/10/25 06:19:07;;;;;;;63.67;16.48;;;;;;;1.97;100.00;99084.13;4936510;29;20449;-75
2021/10/25 06:21:34;;;;;;;114.95;16.42;;;;;;;1.97;100.00;99091.41;4926710;29;20046;-74
2021/10/25 06:24:00;;;;;;;47.28;14.23;;;;;;;2.12;100.00;99090.09;4934654;29;20095;-75
2021/10/25 06:26:27;;;;;;;68.63;15.32;;;;;;;2.26;100.00;99092.72;4966227;28;20019;-78
2021/10/25 06:28:53;;;;;;;37.55;14.02;;;;;;;2.24;100.00;99092.13;4957287;29;20027;-77
2021/10/25 06:31:19;;;;;;;90.75;14.98;;;;;;;1.94;100.00;99092.63;4955015;29;20110;-75
2021/10/25 06:33:46;;;;;;;109.00;16.33;;;;;;;1.97;100.00;99097.59;4931181;29;20532;-75
2021/10/25 06:36:13;;;;;;;35.25;13.35;;;;;;;2.15;100.00;99100.47;4936289;29;20038;-76
2021/10/25 06:38:58;;;;;;;41.95;15.07;;;;;;;2.06;100.00;99095.53;4926814;29;20381;-78
2021/10/25 06:41:24;;;;;;;59.83;16.60;;;;;;;2.20;100.00;99102.50;4946974;29;20027;-78
2021/10/25 06:43:51;;;;;;;73.50;14.38;;;;;;;2.31;100.00;99107.25;4950788;29;20027;-78
2021/10/25 06:46:28;;;;;;;63.20;14.27;;;;;;;2.30;100.00;99110.16;4949998;29;20031;-77
2021/10/25 06:48:54;;;;;;;30.48;13.13;;;;;;;2.38;100.00;99109.94;4945554;28;20031;-77
2021/10/25 06:51:19;;;;;;;46.72;13.30;;;;;;;2.46;100.00;99112.38;4924662;29;20040;-78
2021/10/25 06:53:45;;;;;;;64.68;14.82;;;;;;;2.51;100.00;99117.94;4952764;29;20030;-77
2021/10/25 06:56:10;;;;;;;48.13;15.30;;;;;;;2.49;100.00;99125.44;4943953;29;20043;-78
2021/10/25 06:58:36;;;;;;;45.78;14.48;;;;;;;2.57;100.00;99122.50;4928140;29;20042;-78
2021/10/25 07:01:02;;;;;;;28.58;13.70;;;;;;;2.74;100.00;99112.84;4930296;29;20759;-78
2021/10/25 07:03:28;;;;;;;44.17;13.88;;;;;;;2.78;100.00;99116.78;4943569;29;20114;-79
2021/10/25 07:05:54;;;;;;;24.52;13.30;;;;;;;2.81;100.00;99115.53;4945043;29;20148;-76
2021/10/25 07:08:20;;;;;;;28.10;13.38;;;;;;;2.96;100.00;99124.97;4943344;28;20174;-75
2021/10/25 07:10:46;;;;;;;29.58;13.85;;;;;;;3.07;100.00;99120.78;4949869;28;20086;-80
2021/10/25 07:13:11;;;;;;;23.48;12.23;;;;;;;3.11;100.00;99122.81;4959712;29;20043;-80
2021/10/25 07:15:45;;;;;;;27.25;13.90;;;;;;;3.26;100.00;99113.56;4958888;29;20035;-78
2021/10/25 08:07:11;;;;;;;20.63;12.30;;;;;;;5.45;100.00;99113.16;4962352;28;20075;-77
2021/10/25 08:12:17;;;;;;;20.70;12.52;;;;;;;5.43;98.86;99111.75;4972349;28;20027;-83
2021/10/25 08:14:51;;;;;;;27.40;11.35;;;;;;;5.50;98.63;99118.75;4977936;28;20027;-81
2021/10/25 08:17:21;;;;;;;23.35;10.60;;;;;;;5.80;96.78;99108.59;4979736;28;20025;-79
2021/10/25 08:19:53;;;;;;;22.40;11.68;;;;;;;6.31;93.55;99123.34;4978204;28;20058;-79
2021/10/25 08:22:27;;;;;;;24.27;11.63;;;;;;;7.05;88.65;99119.69;4974316;28;20091;-82
2021/10/25 08:24:53;;;;;;;20.10;11.38;;;;;;;6.75;88.05;99125.38;4974122;28;20034;-81
2021/10/25 08:27:20;;;;;;;20.55;10.90;;;;;;;7.09;87.34;99129.00;4962861;28;20022;-79
2021/10/25 08:29:49;;;;;;;17.80;9.95;;;;;;;7.98;84.32;99117.19;4965153;28;20078;-81
2021/10/25 08:40:20;;;;;;;15.40;9.70;;;;;;;13.25;58.83;99113.94;4975916;28;20115;-76
2021/10/25 08:42:45;;;;;;;17.90;10.07;;;;;;;14.07;56.61;99109.41;4975407;28;20043;-81
2021/10/25 08:45:17;;;;;;;17.63;9.93;;;;;;;14.64;54.39;99109.41;4974042;28;20051;-80
2021/10/25 08:47:48;;;;;;;20.33;10.82;;;;;;;14.44;54.31;99115.94;4963349;29;21497;-80
2021/10/25 08:50:19;;;;;;;16.02;9.80;;;;;;;14.87;54.61;99116.84;4975090;28;20051;-80
2021/10/25 08:52:45;;;;;;;25.83;10.85;;;;;;;14.89;53.95;99120.13;4973264;28;20015;-78
2021/10/25 08:55:16;;;;;;;19.30;10.32;;;;;;;14.69;54.15;99109.31;4969488;29;20039;-79
2021/10/25 08:57:42;;;;;;;14.02;9.82;;;;;;;14.46;53.91;99099.97;4967907;29;20021;-75
2021/10/25 09:00:11;;;;;;;19.92;10.65;;;;;;;16.01;51.39;99103.56;4966458;29;20035;-79
2021/10/25 09:02:40;;;;;;;20.10;10.27;;;;;;;16.50;49.55;99105.72;4959993;28;20102;-79
2021/10/25 09:05:20;;;;;;;13.70;9.60;;;;;;;16.60;48.09;99099.22;4942369;29;20062;-77
2021/10/25 09:07:54;;;;;;;16.63;10.77;;;;;;;14.36;53.31;99104.75;4948876;29;20504;-79
2021/10/25 09:10:23;;;;;;;20.33;10.88;;;;;;;14.17;55.24;99101.91;4956813;28;20031;-78
2021/10/25 09:12:58;;;;;;;18.20;10.50;;;;;;;15.82;50.56;99100.03;4949630;29;20060;-78
2021/10/25 09:15:37;;;;;;;14.75;10.30;;;;;;;15.64;49.94;99103.63;4949231;28;20077;-78
2021/10/25 09:18:12;;;;;;;19.05;10.85;;;;;;;15.03;52.35;99107.25;4939271;29;20071;-78
2021/10/25 09:20:56;;;;;;;14.77;10.20;;;;;;;15.32;52.09;99100.78;4949095;29;20063;-78
2021/10/25 09:23:31;;;;;;;16.05;10.65;;;;;;;15.18;52.13;99105.41;4948382;29;20071;-76
2021/10/25 09:26:07;;;;;;;15.48;10.25;;;;;;;14.26;54.69;99089.16;4948498;29;20038;-78
2021/10/25 09:28:47;;;;;;;15.20;9.65;;;;;;;15.27;52.56;99103.63;4948483;29;20492;-78
2021/10/25 09:31:19;;;;;;;18.92;11.98;;;;;;;14.86;53.88;99095.91;4939149;29;20035;-78
2021/10/25 09:33:55;;;;;;;15.75;10.23;;;;;;;15.61;51.45;99087.69;4948877;29;20676;-78
2021/10/25 09:36:21;;;;;;;18.88;12.25;;;;;;;16.02;50.53;99087.81;4948549;29;20532;-78
2021/10/25 09:38:56;;;;;;;18.50;11.23;;;;;;;16.87;48.47;99092.84;4948872;29;20155;-78
2021/10/25 09:49:33;;;;;;;18.52;11.85;;;;;;;16.23;50.09;99069.75;4950614;29;20050;-78
2021/10/25 09:52:04;;;;;;;18.33;11.82;;;;;;;16.53;48.06;99074.72;4950420;29;20035;-78
2021/10/25 09:54:33;;;;;;;18.50;13.10;;;;;;;15.06;51.92;99072.78;4949064;29;20062;-77
2021/10/25 09:57:06;;;;;;;18.98;12.45;;;;;;;14.81;53.44;99065.69;4955671;28;20031;-79
2021/10/25 09:59:48;;;;;;;21.70;12.55;;;;;;;15.43;52.05;99064.50;4962465;29;20031;-77
2021/10/25 10:02:14;;;;;;;20.45;12.05;;;;;;;15.48;51.98;99060.88;4926031;29;20595;-78
2021/10/25 10:04:42;;;;;;;16.15;12.27;;;;;;;13.75;57.08;99055.00;4953619;29;20058;-77
2021/10/25 10:07:11;;;;;;;22.63;12.60;;;;;;;14.16;55.78;99053.47;4953253;28;20204;-78
2021/10/25 10:09:38;;;;;;;16.95;12.10;;;;;;;15.24;53.05;99046.31;4958161;28;20062;-78
2021/10/25 10:12:04;;;;;;;19.77;11.55;;;;;;;15.12;53.36;99040.44;4942160;28;20056;-78
2021/10/25 10:14:29;;;;;;;23.38;13.70;;;;;;;15.47;52.30;99028.88;4962872;28;20831;-79
2021/10/25 10:16:57;;;;;;;19.58;11.30;;;;;;;15.28;53.11;99030.84;4965306;28;20030;-79
2021/10/25 10:19:24;;;;;;;18.25;12.18;;;;;;;14.97;53.34;99028.50;4956977;28;20026;-79
2021/10/25 10:21:58;;;;;;;22.08;12.90;;;;;;;14.58;54.78;99016.94;4979798;28;20054;-79
2021/10/25 10:24:31;;;;;;;19.58;11.38;;;;;;;15.28;52.39;99019.81;4975027;28;20101;-79
2021/10/25 10:26:59;;;;;;;18.92;11.57;;;;;;;15.59;51.29;99012.72;4978941;28;20039;-79
2021/10/25 10:29:25;;;;;;;18.77;11.50;;;;;;;15.44;51.30;99016.50;4973271;28;20037;-74
2021/10/25 10:32:01;;;;;;;15.43;10.80;;;;;;;15.77;51.91;99005.50;4970330;28;20031;-74
2021/10/25 10:34:38;;;;;;;21.75;11.27;;;;;;;15.26;52.94;99008.25;4970427;28;20066;-73
2021/10/25 10:37:14;;;;;;;16.05;10.73;;;;;;;16.62;49.41;99005.78;4970445;28;20061;-74
2021/10/25 10:39:39;;;;;;;18.00;11.55;;;;;;;16.01;50.56;98993.16;4970587;28;20023;-73
2021/10/25 10:42:06;;;;;;;16.88;11.20;;;;;;;15.85;51.27;98991.81;4970636;28;20038;-74
2021/10/25 10:44:32;;;;;;;16.65;11.02;;;;;;;16.17;49.70;98985.41;4959728;28;20492;-78
2021/10/25 10:47:11;;;;;;;12.43;9.13;;;;;;;15.87;49.21;98974.97;4948104;29;20023;-78
2021/10/25 10:49:43;;;;;;;17.35;11.43;;;;;;;14.60;53.43;98967.91;4977944;28;21126;-77
2021/10/25 10:52:26;;;;;;;19.05;10.85;;;;;;;15.54;51.62;98968.66;4959200;28;20036;-76
2021/10/25 10:55:18;;;;;;;16.45;10.88;;;;;;;16.44;49.34;98962.50;4941437;29;20050;-80
2021/10/25 11:00:28;;;;;;;14.80;9.30;;;;;;;16.19;48.35;98965.78;4957018;29;20039;-80
2021/10/25 11:02:58;;;;;;;14.75;8.82;;;;;;;16.42;47.50;98959.22;4954359;29;20064;-77
2021/10/25 11:05:34;;;;;;;16.13;9.02;;;;;;;16.91;46.13;98953.72;4944959;29;20019;-78
2021/10/25 11:08:11;;;;;;;16.05;8.85;;;;;;;16.20;47.76;98945.31;4957214;29;20047;-81
2021/10/25 11:10:39;;;;;;;20.20;9.20;;;;;;;16.72;46.58;98936.50;4961551;28;20088;-75
2021/10/25 11:13:15;;;;;;;18.63;10.15;;;;;;;16.38;46.98;98944.41;4946036;29;20040;-79
2021/10/25 11:16:06;;;;;;;14.50;8.82;;;;;;;16.04;47.71;98937.34;4960409;29;20008;-78
2021/10/25 11:18:36;;;;;;;12.30;8.18;;;;;;;15.41;49.51;98928.06;4945581;29;20031;-74
2021/10/25 11:21:27;;;;;;;12.40;7.95;;;;;;;14.92;50.81;98918.41;4962065;28;20055;-80
2021/10/25 11:23:57;;;;;;;20.20;8.45;;;;;;;14.28;52.35;98920.97;4945319;29;20092;-80
2021/10/25 11:26:38;;;;;;;17.50;8.30;;;;;;;13.57;54.65;98913.56;4945314;29;20103;-79
2021/10/25 11:29:09;;;;;;;14.95;8.68;;;;;;;13.68;54.77;98911.53;4961456;28;20016;-78
2021/10/25 11:31:49;;;;;;;15.20;8.43;;;;;;;13.59;54.74;98897.59;4962674;28;20008;-75
2021/10/25 11:34:21;;;;;;;12.32;7.20;;;;;;;13.86;54.20;98892.34;4962864;28;20018;-74
2021/10/25 11:37:12;;;;;;;16.17;7.30;;;;;;;13.25;55.59;98894.13;4946388;29;20042;-74
2021/10/25 11:39:46;;;;;;;16.52;7.85;;;;;;;12.84;56.36;98883.44;4962444;28;20043;-74
2021/10/25 11:42:15;;;;;;;14.65;7.50;;;;;;;12.41;58.05;98876.06;4945639;29;20052;-75
2021/10/25 11:44:44;;;;;;;15.90;8.23;;;;;;;12.14;58.73;98872.94;4962773;29;20028;-75
2021/10/25 11:47:33;;;;;;;14.25;8.00;;;;;;;12.07;59.70;98870.53;4945761;29;20024;-77
2021/10/25 11:50:05;;;;;;;13.45;6.93;;;;;;;12.37;59.22;98871.44;4961390;29;20027;-78
2021/10/25 11:52:58;;;;;;;12.75;7.35;;;;;;;12.80;58.08;98874.16;4961686;28;20047;-81
2021/10/25 11:55:32;;;;;;;15.40;6.68;;;;;;;12.87;57.20;98863.63;4974331;28;20032;-77
2021/10/25 11:58:07;;;;;;;15.25;7.07;;;;;;;12.86;57.90;98859.28;4967199;29;20079;-79
2021/10/25 12:00:43;;;;;;;12.15;6.80;;;;;;;12.74;57.91;98858.81;4947189;29;20436;-80
2021/10/25 12:03:21;;;;;;;18.20;7.38;;;;;;;12.74;57.73;98849.78;4976977;28;20022;-77
2021/10/25 12:05:48;;;;;;;16.77;6.93;;;;;;;12.72;58.32;98844.53;4973833;28;20015;-74
2021/10/25 12:08:16;;;;;;;17.38;6.30;;;;;;;12.46;57.17;98845.88;4980707;28;20050;-77
2021/10/25 12:10:44;;;;;;;12.95;6.80;;;;;;;12.49;57.32;98834.31;4981088;28;20042;-74
2021/10/25 12:13:11;;;;;;;14.65;6.75;;;;;;;12.40;57.13;98829.72;4981302;28;20015;-77
2021/10/25 12:16:09;;;;;;;12.63;6.53;;;;;;;12.47;57.49;98822.78;4950259;29;20023;-80
2021/10/25 12:18:34;;;;;;;19.90;6.07;;;;;;;12.49;56.97;98812.38;4957597;29;20039;-81
2021/10/25 12:21:10;;;;;;;10.88;6.22;;;;;;;11.62;58.60;98808.47;4963805;28;20177;-79
2021/10/25 12:23:48;;;;;;;10.95;6.53;;;;;;;11.93;57.83;98802.88;4974289;29;20054;-80
2021/10/25 12:26:16;;;;;;;14.23;6.60;;;;;;;11.70;58.30;98804.38;4955845;29;20098;-79
2021/10/25 12:28:41;;;;;;;14.40;6.95;;;;;;;11.96;57.56;98796.81;4974251;29;20026;-80
2021/10/25 12:31:13;;;;;;;12.43;6.70;;;;;;;12.29;56.47;98790.56;4959840;29;20035;-79
2021/10/25 12:33:42;;;;;;;12.90;6.55;;;;;;;12.60;56.14;98793.88;4957439;29;20067;-78
2021/10/25 12:36:25;;;;;;;18.30;6.88;;;;;;;12.93;54.86;98795.78;4957132;29;20030;-80
2021/10/25 12:38:54;;;;;;;16.80;6.47;;;;;;;13.06;55.24;98794.28;4974377;29;20031;-80
2021/10/25 12:41:20;;;;;;;13.88;6.57;;;;;;;13.13;53.62;98787.34;4959141;29;20027;-80
2021/10/25 12:43:49;;;;;;;11.45;6.07;;;;;;;13.18;52.72;98781.81;4960251;28;20043;-79
2021/10/25 12:46:21;;;;;;;12.07;5.97;;;;;;;13.35;52.07;98782.16;4976231;29;20027;-80
2021/10/25 12:48:53;;;;;;;11.23;6.10;;;;;;;13.25;52.19;98793.25;4972429;28;20007;-79
2021/10/25 12:51:20;;;;;;;9.50;5.70;;;;;;;13.21;52.32;98783.16;4969603;29;20022;-80
2021/10/25 12:53:48;;;;;;;10.65;5.43;;;;;;;12.61;54.11;98787.28;4952124;29;20008;-78
2021/10/25 12:56:24;;;;;;;10.48;5.90;;;;;;;12.32;55.39;98781.75;4956883;29;20027;-81
2021/10/25 12:59:01;;;;;;;14.50;6.80;;;;;;;12.34;54.36;98776.81;4945266;29;20027;-76
2021/10/25 13:01:26;;;;;;;13.32;5.50;;;;;;;12.35;54.60;98775.69;4961136;28;20032;-76
2021/10/25 13:03:59;;;;;;;11.82;5.68;;;;;;;12.39;54.61;98757.56;4961032;28;20074;-75
2021/10/25 13:06:31;;;;;;;25.95;7.30;;;;;;;12.14;54.91;98746.78;4954189;28;20066;-74